sensor_id;sensor_type;location;lat;lon;timestamp;P1;durP1;ratioP1;P2;durP2;ratioP2
65162;SDS011;51751;55.714;37.436;2023-03-23T00:02:13;5.88;;;2.45;;
65162;SDS011;51751;55.714;37.436;2023-03-23T00:04:41;6.38;;;2.45;;
65162;SDS011;51751;55.714;37.436;2023-03-23T00:07:08;3.28;;;2.10;;
65162;SDS011;51751;55.714;37.436;2023-03-23T00:09:34;4.13;;;2.45;;
65162;SDS011;51751;55.714;37.436;2023-03-23T00:12:00;2.70;;;2.13;;
65162;SDS011;51751;55.714;37.436;2023-03-23T00:14:31;4.43;;;2.40;;
65162;SDS011;51751;55.714;37.436;2023-03-23T00:17:09;5.57;;;2.25;;
65162;SDS011;51751;55.714;37.436;2023-03-23T00:19:37;3.20;;;2.22;;
65162;SDS011;51751;55.714;37.436;2023-03-23T00:22:14;5.18;;;2.28;;
65162;SDS011;51751;55.714;37.436;2023-03-23T00:24:42;3.58;;;2.20;;
65162;SDS011;51751;55.714;37.436;2023-03-23T00:27:08;5.57;;;2.17;;
65162;SDS011;51751;55.714;37.436;2023-03-23T00:29:41;3.83;;;2.15;;
65162;SDS011;51751;55.714;37.436;2023-03-23T00:32:10;3.08;;;2.30;;
65162;SDS011;51751;55.714;37.436;2023-03-23T00:34:39;7.03;;;2.55;;
65162;SDS011;51751;55.714;37.436;2023-03-23T00:37:08;5.82;;;2.17;;
65162;SDS011;51751;55.714;37.436;2023-03-23T00:39:35;4.47;;;2.30;;
65162;SDS011;51751;55.714;37.436;2023-03-23T00:42:02;3.00;;;2.10;;
65162;SDS011;51751;55.714;37.436;2023-03-23T00:44:29;3.10;;;2.10;;
65162;SDS011;51751;55.714;37.436;2023-03-23T00:47:00;3.97;;;2.28;;
65162;SDS011;51751;55.714;37.436;2023-03-23T00:49:27;3.08;;;2.05;;
65162;SDS011;51751;55.714;37.436;2023-03-23T00:51:57;4.95;;;2.40;;
65162;SDS011;51751;55.714;37.436;2023-03-23T00:54:23;6.40;;;2.17;;
65162;SDS011;51751;55.714;37.436;2023-03-23T00:56:50;4.68;;;2.20;;
65162;SDS011;51751;55.714;37.436;2023-03-23T00:59:16;3.47;;;2.50;;
65162;SDS011;51751;55.714;37.436;2023-03-23T01:01:43;4.38;;;2.60;;
65162;SDS011;51751;55.714;37.436;2023-03-23T01:04:09;5.90;;;2.50;;
65162;SDS011;51751;55.714;37.436;2023-03-23T01:06:49;5.10;;;2.53;;
65162;SDS011;51751;55.714;37.436;2023-03-23T01:09:19;4.90;;;2.40;;
65162;SDS011;51751;55.714;37.436;2023-03-23T01:11:52;2.88;;;2.20;;
65162;SDS011;51751;55.714;37.436;2023-03-23T01:14:21;4.55;;;2.20;;
65162;SDS011;51751;55.714;37.436;2023-03-23T01:16:49;4.32;;;2.20;;
65162;SDS011;51751;55.714;37.436;2023-03-23T01:19:17;3.72;;;2.22;;
65162;SDS011;51751;55.714;37.436;2023-03-23T01:21:43;2.63;;;2.10;;
65162;SDS011;51751;55.714;37.436;2023-03-23T01:24:09;2.97;;;2.20;;
65162;SDS011;51751;55.714;37.436;2023-03-23T01:26:36;3.17;;;2.03;;
65162;SDS011;51751;55.714;37.436;2023-03-23T01:29:03;4.53;;;2.42;;
65162;SDS011;51751;55.714;37.436;2023-03-23T01:31:29;2.80;;;2.35;;
65162;SDS011;51751;55.714;37.436;2023-03-23T01:33:55;2.78;;;2.00;;
65162;SDS011;51751;55.714;37.436;2023-03-23T01:36:25;3.28;;;2.40;;
65162;SDS011;51751;55.714;37.436;2023-03-23T01:38:58;4.57;;;2.70;;
65162;SDS011;51751;55.714;37.436;2023-03-23T01:41:26;5.45;;;2.90;;
65162;SDS011;51751;55.714;37.436;2023-03-23T01:47:08;5.45;;;2.60;;
65162;SDS011;51751;55.714;37.436;2023-03-23T01:49:38;4.80;;;2.90;;
65162;SDS011;51751;55.714;37.436;2023-03-23T01:52:22;3.83;;;2.55;;
65162;SDS011;51751;55.714;37.436;2023-03-23T01:54:53;2.88;;;2.22;;
65162;SDS011;51751;55.714;37.436;2023-03-23T01:57:21;6.47;;;3.25;;
65162;SDS011;51751;55.714;37.436;2023-03-23T01:59:49;6.68;;;3.30;;
65162;SDS011;51751;55.714;37.436;2023-03-23T02:02:20;6.35;;;3.90;;
65162;SDS011;51751;55.714;37.436;2023-03-23T02:04:48;5.15;;;2.30;;
65162;SDS011;51751;55.714;37.436;2023-03-23T02:07:15;6.82;;;3.40;;
65162;SDS011;51751;55.714;37.436;2023-03-23T02:09:43;6.18;;;3.45;;
65162;SDS011;51751;55.714;37.436;2023-03-23T02:12:09;5.90;;;3.53;;
65162;SDS011;51751;55.714;37.436;2023-03-23T02:14:36;7.75;;;3.80;;
65162;SDS011;51751;55.714;37.436;2023-03-23T02:20:06;8.95;;;4.70;;
65162;SDS011;51751;55.714;37.436;2023-03-23T02:33:43;4.68;;;2.28;;
65162;SDS011;51751;55.714;37.436;2023-03-23T02:38:55;3.63;;;2.08;;
65162;SDS011;51751;55.714;37.436;2023-03-23T02:41:24;4.28;;;2.25;;
65162;SDS011;51751;55.714;37.436;2023-03-23T02:43:53;3.42;;;2.03;;
65162;SDS011;51751;55.714;37.436;2023-03-23T02:46:19;3.80;;;2.10;;
65162;SDS011;51751;55.714;37.436;2023-03-23T02:48:46;3.17;;;2.20;;
65162;SDS011;51751;55.714;37.436;2023-03-23T02:51:15;3.75;;;2.65;;
65162;SDS011;51751;55.714;37.436;2023-03-23T02:53:41;2.85;;;2.25;;
65162;SDS011;51751;55.714;37.436;2023-03-23T02:56:09;3.70;;;2.55;;
65162;SDS011;51751;55.714;37.436;2023-03-23T02:58:36;4.97;;;2.20;;
65162;SDS011;51751;55.714;37.436;2023-03-23T03:03:59;3.95;;;2.38;;
65162;SDS011;51751;55.714;37.436;2023-03-23T03:12:04;3.15;;;2.17;;
65162;SDS011;51751;55.714;37.436;2023-03-23T03:14:36;3.45;;;2.10;;
65162;SDS011;51751;55.714;37.436;2023-03-23T03:17:09;3.65;;;2.30;;
65162;SDS011;51751;55.714;37.436;2023-03-23T03:19:58;3.38;;;1.90;;
65162;SDS011;51751;55.714;37.436;2023-03-23T03:22:37;4.30;;;2.17;;
65162;SDS011;51751;55.714;37.436;2023-03-23T03:25:04;5.78;;;2.35;;
65162;SDS011;51751;55.714;37.436;2023-03-23T03:27:31;7.13;;;2.72;;
65162;SDS011;51751;55.714;37.436;2023-03-23T03:30:11;3.45;;;2.35;;
65162;SDS011;51751;55.714;37.436;2023-03-23T03:32:46;3.58;;;2.42;;
65162;SDS011;51751;55.714;37.436;2023-03-23T03:35:20;3.10;;;2.15;;
65162;SDS011;51751;55.714;37.436;2023-03-23T03:37:47;6.10;;;2.53;;
65162;SDS011;51751;55.714;37.436;2023-03-23T03:40:14;6.45;;;2.65;;
65162;SDS011;51751;55.714;37.436;2023-03-23T03:42:44;2.88;;;2.03;;
65162;SDS011;51751;55.714;37.436;2023-03-23T03:45:13;3.25;;;2.40;;
65162;SDS011;51751;55.714;37.436;2023-03-23T03:47:41;4.32;;;2.42;;
65162;SDS011;51751;55.714;37.436;2023-03-23T03:50:08;4.90;;;2.58;;
65162;SDS011;51751;55.714;37.436;2023-03-23T03:52:35;4.47;;;2.35;;
65162;SDS011;51751;55.714;37.436;2023-03-23T03:55:00;4.30;;;2.65;;
65162;SDS011;51751;55.714;37.436;2023-03-23T03:57:28;4.35;;;2.53;;
65162;SDS011;51751;55.714;37.436;2023-03-23T04:00:04;5.03;;;3.28;;
65162;SDS011;51751;55.714;37.436;2023-03-23T04:02:49;7.45;;;3.85;;
65162;SDS011;51751;55.714;37.436;2023-03-23T04:05:41;7.93;;;3.95;;
65162;SDS011;51751;55.714;37.436;2023-03-23T04:08:10;5.75;;;3.00;;
65162;SDS011;51751;55.714;37.436;2023-03-23T04:10:37;5.43;;;3.40;;
65162;SDS011;51751;55.714;37.436;2023-03-23T04:13:08;7.35;;;3.60;;
65162;SDS011;51751;55.714;37.436;2023-03-23T04:15:53;6.57;;;3.42;;
65162;SDS011;51751;55.714;37.436;2023-03-23T04:18:38;4.90;;;2.80;;
65162;SDS011;51751;55.714;37.436;2023-03-23T04:21:07;5.57;;;3.25;;
65162;SDS011;51751;55.714;37.436;2023-03-23T04:23:33;7.05;;;3.55;;
65162;SDS011;51751;55.714;37.436;2023-03-23T04:26:22;9.43;;;4.05;;
65162;SDS011;51751;55.714;37.436;2023-03-23T04:28:50;11.95;;;4.07;;
65162;SDS011;51751;55.714;37.436;2023-03-23T04:31:41;6.80;;;3.60;;
65162;SDS011;51751;55.714;37.436;2023-03-23T04:34:25;7.88;;;3.80;;
65162;SDS011;51751;55.714;37.436;2023-03-23T04:36:54;7.55;;;3.88;;
65162;SDS011;51751;55.714;37.436;2023-03-23T04:39:26;8.77;;;4.68;;
65162;SDS011;51751;55.714;37.436;2023-03-23T04:42:05;7.82;;;3.28;;
65162;SDS011;51751;55.714;37.436;2023-03-23T04:44:54;6.82;;;3.55;;
65162;SDS011;51751;55.714;37.436;2023-03-23T04:47:30;9.70;;;3.80;;
65162;SDS011;51751;55.714;37.436;2023-03-23T04:50:09;7.75;;;4.05;;
65162;SDS011;51751;55.714;37.436;2023-03-23T04:52:40;6.78;;;4.10;;
65162;SDS011;51751;55.714;37.436;2023-03-23T04:55:11;5.72;;;3.35;;
65162;SDS011;51751;55.714;37.436;2023-03-23T04:57:40;8.13;;;4.07;;
65162;SDS011;51751;55.714;37.436;2023-03-23T05:00:24;6.93;;;4.32;;
65162;SDS011;51751;55.714;37.436;2023-03-23T05:02:54;7.72;;;4.15;;
65162;SDS011;51751;55.714;37.436;2023-03-23T05:05:38;7.72;;;4.20;;
65162;SDS011;51751;55.714;37.436;2023-03-23T05:08:13;7.38;;;3.83;;
65162;SDS011;51751;55.714;37.436;2023-03-23T05:10:40;10.23;;;3.97;;
65162;SDS011;51751;55.714;37.436;2023-03-23T05:13:13;12.40;;;4.78;;
65162;SDS011;51751;55.714;37.436;2023-03-23T05:15:39;8.23;;;4.60;;
65162;SDS011;51751;55.714;37.436;2023-03-23T05:18:07;10.20;;;4.45;;
65162;SDS011;51751;55.714;37.436;2023-03-23T05:20:36;11.90;;;4.15;;
65162;SDS011;51751;55.714;37.436;2023-03-23T05:23:06;10.85;;;4.30;;
65162;SDS011;51751;55.714;37.436;2023-03-23T05:25:37;9.57;;;4.90;;
65162;SDS011;51751;55.714;37.436;2023-03-23T05:28:18;9.73;;;3.85;;
65162;SDS011;51751;55.714;37.436;2023-03-23T05:30:48;8.82;;;4.38;;
65162;SDS011;51751;55.714;37.436;2023-03-23T05:33:16;9.07;;;4.80;;
65162;SDS011;51751;55.714;37.436;2023-03-23T05:35:49;8.82;;;4.60;;
65162;SDS011;51751;55.714;37.436;2023-03-23T05:38:25;9.30;;;4.10;;
65162;SDS011;51751;55.714;37.436;2023-03-23T05:40:57;10.35;;;4.85;;
65162;SDS011;51751;55.714;37.436;2023-03-23T05:43:32;13.15;;;4.93;;
65162;SDS011;51751;55.714;37.436;2023-03-23T05:46:20;9.95;;;4.55;;
65162;SDS011;51751;55.714;37.436;2023-03-23T05:48:48;10.88;;;5.15;;
65162;SDS011;51751;55.714;37.436;2023-03-23T05:51:16;10.63;;;5.05;;
65162;SDS011;51751;55.714;37.436;2023-03-23T05:53:44;9.13;;;4.80;;
65162;SDS011;51751;55.714;37.436;2023-03-23T05:56:13;8.90;;;4.80;;
65162;SDS011;51751;55.714;37.436;2023-03-23T05:59:08;16.88;;;4.82;;
65162;SDS011;51751;55.714;37.436;2023-03-23T06:01:36;10.30;;;5.25;;
65162;SDS011;51751;55.714;37.436;2023-03-23T06:04:03;7.32;;;4.50;;
65162;SDS011;51751;55.714;37.436;2023-03-23T06:06:42;9.57;;;5.13;;
65162;SDS011;51751;55.714;37.436;2023-03-23T06:09:09;7.65;;;4.88;;
65162;SDS011;51751;55.714;37.436;2023-03-23T06:12:06;11.15;;;4.97;;
65162;SDS011;51751;55.714;37.436;2023-03-23T06:14:47;11.18;;;4.53;;
65162;SDS011;51751;55.714;37.436;2023-03-23T06:17:50;10.40;;;4.60;;
65162;SDS011;51751;55.714;37.436;2023-03-23T06:20:39;7.28;;;4.53;;
65162;SDS011;51751;55.714;37.436;2023-03-23T06:23:26;10.18;;;5.60;;
65162;SDS011;51751;55.714;37.436;2023-03-23T06:26:03;10.25;;;4.72;;
65162;SDS011;51751;55.714;37.436;2023-03-23T06:28:33;13.57;;;5.22;;
65162;SDS011;51751;55.714;37.436;2023-03-23T06:31:05;7.18;;;4.55;;
65162;SDS011;51751;55.714;37.436;2023-03-23T06:33:34;8.73;;;4.57;;
65162;SDS011;51751;55.714;37.436;2023-03-23T06:36:19;10.65;;;5.20;;
65162;SDS011;51751;55.714;37.436;2023-03-23T06:38:56;8.60;;;4.63;;
65162;SDS011;51751;55.714;37.436;2023-03-23T06:41:31;8.55;;;4.88;;
65162;SDS011;51751;55.714;37.436;2023-03-23T06:43:58;9.93;;;4.50;;
65162;SDS011;51751;55.714;37.436;2023-03-23T06:46:28;14.85;;;5.43;;
65162;SDS011;51751;55.714;37.436;2023-03-23T06:48:54;9.65;;;4.57;;
65162;SDS011;51751;55.714;37.436;2023-03-23T06:51:39;9.13;;;4.45;;
65162;SDS011;51751;55.714;37.436;2023-03-23T06:54:05;7.63;;;4.65;;
65162;SDS011;51751;55.714;37.436;2023-03-23T06:56:39;16.13;;;4.97;;
65162;SDS011;51751;55.714;37.436;2023-03-23T06:59:07;10.65;;;4.82;;
65162;SDS011;51751;55.714;37.436;2023-03-23T07:01:37;10.80;;;4.75;;
65162;SDS011;51751;55.714;37.436;2023-03-23T07:04:04;14.70;;;5.00;;
65162;SDS011;51751;55.714;37.436;2023-03-23T07:06:46;9.43;;;4.55;;
65162;SDS011;51751;55.714;37.436;2023-03-23T07:09:13;7.00;;;4.38;;
65162;SDS011;51751;55.714;37.436;2023-03-23T07:11:40;7.05;;;4.32;;
65162;SDS011;51751;55.714;37.436;2023-03-23T07:14:15;8.25;;;4.53;;
65162;SDS011;51751;55.714;37.436;2023-03-23T07:16:41;21.83;;;4.50;;
65162;SDS011;51751;55.714;37.436;2023-03-23T07:19:10;8.50;;;4.30;;
65162;SDS011;51751;55.714;37.436;2023-03-23T07:21:39;9.15;;;4.55;;
65162;SDS011;51751;55.714;37.436;2023-03-23T07:24:05;10.02;;;4.57;;
65162;SDS011;51751;55.714;37.436;2023-03-23T07:26:43;8.65;;;4.00;;
65162;SDS011;51751;55.714;37.436;2023-03-23T07:29:09;7.72;;;4.40;;
65162;SDS011;51751;55.714;37.436;2023-03-23T07:31:42;6.45;;;3.92;;
65162;SDS011;51751;55.714;37.436;2023-03-23T07:34:08;6.32;;;3.72;;
65162;SDS011;51751;55.714;37.436;2023-03-23T07:36:46;12.00;;;4.20;;
65162;SDS011;51751;55.714;37.436;2023-03-23T07:39:13;11.68;;;4.05;;
65162;SDS011;51751;55.714;37.436;2023-03-23T07:41:40;10.20;;;4.22;;
65162;SDS011;51751;55.714;37.436;2023-03-23T07:44:15;10.38;;;4.45;;
65162;SDS011;51751;55.714;37.436;2023-03-23T07:46:43;9.48;;;4.40;;
65162;SDS011;51751;55.714;37.436;2023-03-23T07:49:12;6.57;;;3.75;;
65162;SDS011;51751;55.714;37.436;2023-03-23T07:51:47;9.93;;;4.25;;
65162;SDS011;51751;55.714;37.436;2023-03-23T07:54:14;6.25;;;4.10;;
65162;SDS011;51751;55.714;37.436;2023-03-23T07:56:44;13.57;;;4.43;;
65162;SDS011;51751;55.714;37.436;2023-03-23T07:59:28;8.88;;;4.20;;
65162;SDS011;51751;55.714;37.436;2023-03-23T08:01:59;9.63;;;3.72;;
65162;SDS011;51751;55.714;37.436;2023-03-23T08:04:44;5.60;;;3.58;;
65162;SDS011;51751;55.714;37.436;2023-03-23T08:07:10;5.47;;;3.33;;
65162;SDS011;51751;55.714;37.436;2023-03-23T08:10:01;10.10;;;4.40;;
65162;SDS011;51751;55.714;37.436;2023-03-23T08:12:30;7.35;;;3.78;;
65162;SDS011;51751;55.714;37.436;2023-03-23T08:15:17;11.07;;;4.80;;
65162;SDS011;51751;55.714;37.436;2023-03-23T08:18:02;5.93;;;4.13;;
65162;SDS011;51751;55.714;37.436;2023-03-23T08:20:47;8.00;;;3.90;;
65162;SDS011;51751;55.714;37.436;2023-03-23T08:23:31;7.07;;;3.95;;
65162;SDS011;51751;55.714;37.436;2023-03-23T08:26:30;8.10;;;4.13;;
65162;SDS011;51751;55.714;37.436;2023-03-23T08:29:32;8.55;;;4.65;;
65162;SDS011;51751;55.714;37.436;2023-03-23T08:32:17;9.10;;;4.53;;
65162;SDS011;51751;55.714;37.436;2023-03-23T08:35:02;6.27;;;4.10;;
65162;SDS011;51751;55.714;37.436;2023-03-23T08:37:57;6.60;;;4.03;;
65162;SDS011;51751;55.714;37.436;2023-03-23T08:40:41;6.55;;;4.03;;
65162;SDS011;51751;55.714;37.436;2023-03-23T08:43:27;12.05;;;4.50;;
65162;SDS011;51751;55.714;37.436;2023-03-23T08:46:20;8.15;;;4.35;;
65162;SDS011;51751;55.714;37.436;2023-03-23T08:49:06;9.73;;;4.15;;
65162;SDS011;51751;55.714;37.436;2023-03-23T08:51:53;7.03;;;4.32;;
65162;SDS011;51751;55.714;37.436;2023-03-23T08:54:35;6.82;;;3.90;;
65162;SDS011;51751;55.714;37.436;2023-03-23T08:57:18;8.32;;;4.30;;
65162;SDS011;51751;55.714;37.436;2023-03-23T09:00:04;7.10;;;4.53;;
65162;SDS011;51751;55.714;37.436;2023-03-23T09:02:59;6.40;;;3.95;;
65162;SDS011;51751;55.714;37.436;2023-03-23T09:05:34;8.02;;;4.63;;
65162;SDS011;51751;55.714;37.436;2023-03-23T09:08:30;9.18;;;4.57;;
65162;SDS011;51751;55.714;37.436;2023-03-23T09:11:00;10.30;;;4.30;;
65162;SDS011;51751;55.714;37.436;2023-03-23T09:13:28;5.68;;;4.20;;
65162;SDS011;51751;55.714;37.436;2023-03-23T09:15:54;7.68;;;4.00;;
65162;SDS011;51751;55.714;37.436;2023-03-23T09:18:20;7.32;;;4.18;;
65162;SDS011;51751;55.714;37.436;2023-03-23T09:20:48;7.43;;;3.80;;
65162;SDS011;51751;55.714;37.436;2023-03-23T09:23:15;12.43;;;4.32;;
65162;SDS011;51751;55.714;37.436;2023-03-23T09:25:42;6.65;;;4.40;;
65162;SDS011;51751;55.714;37.436;2023-03-23T09:28:09;9.38;;;4.68;;
65162;SDS011;51751;55.714;37.436;2023-03-23T09:30:36;8.88;;;3.80;;
65162;SDS011;51751;55.714;37.436;2023-03-23T09:33:03;8.90;;;4.05;;
65162;SDS011;51751;55.714;37.436;2023-03-23T09:35:31;12.23;;;3.70;;
65162;SDS011;51751;55.714;37.436;2023-03-23T09:37:59;7.15;;;3.92;;
65162;SDS011;51751;55.714;37.436;2023-03-23T09:43:50;4.78;;;3.67;;
65162;SDS011;51751;55.714;37.436;2023-03-23T09:46:49;6.25;;;3.30;;
65162;SDS011;51751;55.714;37.436;2023-03-23T09:49:21;4.30;;;3.33;;
65162;SDS011;51751;55.714;37.436;2023-03-23T09:51:54;6.45;;;3.20;;
65162;SDS011;51751;55.714;37.436;2023-03-23T09:56:52;3.83;;;2.97;;
65162;SDS011;51751;55.714;37.436;2023-03-23T09:59:23;4.13;;;3.28;;
65162;SDS011;51751;55.714;37.436;2023-03-23T10:05:39;4.22;;;3.30;;
65162;SDS011;51751;55.714;37.436;2023-03-23T10:08:08;6.85;;;3.08;;
65162;SDS011;51751;55.714;37.436;2023-03-23T10:15:48;10.75;;;3.45;;
65162;SDS011;51751;55.714;37.436;2023-03-23T10:18:27;6.25;;;4.00;;
65162;SDS011;51751;55.714;37.436;2023-03-23T10:20:59;7.18;;;3.30;;
65162;SDS011;51751;55.714;37.436;2023-03-23T10:31:49;6.47;;;3.00;;
65162;SDS011;51751;55.714;37.436;2023-03-23T10:34:35;11.00;;;3.33;;
65162;SDS011;51751;55.714;37.436;2023-03-23T10:37:12;4.93;;;2.78;;
65162;SDS011;51751;55.714;37.436;2023-03-23T10:40:02;5.47;;;2.90;;
65162;SDS011;51751;55.714;37.436;2023-03-23T10:42:35;5.93;;;3.10;;
65162;SDS011;51751;55.714;37.436;2023-03-23T10:45:13;5.15;;;3.15;;
65162;SDS011;51751;55.714;37.436;2023-03-23T10:50:59;4.50;;;3.10;;
65162;SDS011;51751;55.714;37.436;2023-03-23T10:53:30;4.68;;;2.88;;
65162;SDS011;51751;55.714;37.436;2023-03-23T10:56:24;4.53;;;3.17;;
65162;SDS011;51751;55.714;37.436;2023-03-23T10:59:18;8.68;;;3.13;;
65162;SDS011;51751;55.714;37.436;2023-03-23T11:01:47;9.35;;;3.25;;
65162;SDS011;51751;55.714;37.436;2023-03-23T11:04:16;7.00;;;2.88;;
65162;SDS011;51751;55.714;37.436;2023-03-23T11:06:48;3.65;;;2.80;;
65162;SDS011;51751;55.714;37.436;2023-03-23T11:09:18;7.90;;;3.17;;
65162;SDS011;51751;55.714;37.436;2023-03-23T11:11:50;6.20;;;2.60;;
65162;SDS011;51751;55.714;37.436;2023-03-23T11:14:19;7.45;;;2.83;;
65162;SDS011;51751;55.714;37.436;2023-03-23T11:17:21;6.43;;;3.13;;
65162;SDS011;51751;55.714;37.436;2023-03-23T11:19:50;11.55;;;2.90;;
65162;SDS011;51751;55.714;37.436;2023-03-23T11:22:18;4.53;;;2.50;;
65162;SDS011;51751;55.714;37.436;2023-03-23T11:24:55;4.28;;;2.85;;
65162;SDS011;51751;55.714;37.436;2023-03-23T11:27:26;4.18;;;2.60;;
65162;SDS011;51751;55.714;37.436;2023-03-23T11:29:53;7.75;;;2.90;;
65162;SDS011;51751;55.714;37.436;2023-03-23T11:32:26;6.63;;;3.28;;
65162;SDS011;51751;55.714;37.436;2023-03-23T11:34:58;8.38;;;3.38;;
65162;SDS011;51751;55.714;37.436;2023-03-23T11:40:43;6.13;;;2.85;;
65162;SDS011;51751;55.714;37.436;2023-03-23T11:48:34;4.68;;;3.20;;
65162;SDS011;51751;55.714;37.436;2023-03-23T11:51:05;6.65;;;3.10;;
65162;SDS011;51751;55.714;37.436;2023-03-23T11:58:53;5.65;;;3.47;;
65162;SDS011;51751;55.714;37.436;2023-03-23T12:04:15;6.25;;;3.65;;
65162;SDS011;51751;55.714;37.436;2023-03-23T12:12:12;9.55;;;3.47;;
65162;SDS011;51751;55.714;37.436;2023-03-23T12:18:12;14.93;;;3.40;;
65162;SDS011;51751;55.714;37.436;2023-03-23T12:20:26;12.15;;;3.10;;
65162;SDS011;51751;55.714;37.436;2023-03-23T12:28:22;16.83;;;3.20;;
65162;SDS011;51751;55.714;37.436;2023-03-23T12:37:09;5.00;;;3.10;;
65162;SDS011;51751;55.714;37.436;2023-03-23T12:49:05;10.65;;;3.42;;
65162;SDS011;51751;55.714;37.436;2023-03-23T13:00:14;5.82;;;2.90;;
65162;SDS011;51751;55.714;37.436;2023-03-23T13:02:53;12.82;;;3.03;;
65162;SDS011;51751;55.714;37.436;2023-03-23T13:07:58;10.02;;;3.20;;
65162;SDS011;51751;55.714;37.436;2023-03-23T13:10:32;11.77;;;2.80;;
65162;SDS011;51751;55.714;37.436;2023-03-23T13:13:00;6.20;;;2.97;;
65162;SDS011;51751;55.714;37.436;2023-03-23T13:15:51;4.35;;;2.75;;
65162;SDS011;51751;55.714;37.436;2023-03-23T13:21:23;6.50;;;3.00;;
65162;SDS011;51751;55.714;37.436;2023-03-23T13:24:05;5.07;;;3.13;;
65162;SDS011;51751;55.714;37.436;2023-03-23T13:26:39;3.67;;;2.60;;
65162;SDS011;51751;55.714;37.436;2023-03-23T13:29:14;8.98;;;2.85;;
65162;SDS011;51751;55.714;37.436;2023-03-23T13:31:44;6.75;;;3.20;;
65162;SDS011;51751;55.714;37.436;2023-03-23T13:39:24;3.63;;;2.70;;
65162;SDS011;51751;55.714;37.436;2023-03-23T13:44:55;4.75;;;2.92;;
65162;SDS011;51751;55.714;37.436;2023-03-23T13:49:52;3.25;;;2.63;;
65162;SDS011;51751;55.714;37.436;2023-03-23T13:52:52;5.35;;;2.72;;
65162;SDS011;51751;55.714;37.436;2023-03-23T13:57:58;4.22;;;2.90;;
65162;SDS011;51751;55.714;37.436;2023-03-23T14:00:34;7.60;;;3.10;;
65162;SDS011;51751;55.714;37.436;2023-03-23T14:03:10;4.70;;;2.88;;
65162;SDS011;51751;55.714;37.436;2023-03-23T14:10:57;7.80;;;2.50;;
65162;SDS011;51751;55.714;37.436;2023-03-23T14:14:07;7.97;;;2.47;;
65162;SDS011;51751;55.714;37.436;2023-03-23T14:16:43;9.75;;;2.75;;
65162;SDS011;51751;55.714;37.436;2023-03-23T14:19:23;7.03;;;2.60;;
65162;SDS011;51751;55.714;37.436;2023-03-23T14:22:17;6.82;;;2.60;;
65162;SDS011;51751;55.714;37.436;2023-03-23T14:24:44;5.28;;;2.50;;
65162;SDS011;51751;55.714;37.436;2023-03-23T14:27:12;3.40;;;2.63;;
65162;SDS011;51751;55.714;37.436;2023-03-23T14:29:59;7.03;;;3.08;;
65162;SDS011;51751;55.714;37.436;2023-03-23T14:32:27;4.32;;;2.60;;
65162;SDS011;51751;55.714;37.436;2023-03-23T14:34:55;5.72;;;2.50;;
65162;SDS011;51751;55.714;37.436;2023-03-23T14:37:21;7.20;;;2.90;;
65162;SDS011;51751;55.714;37.436;2023-03-23T14:39:54;4.47;;;2.90;;
65162;SDS011;51751;55.714;37.436;2023-03-23T14:42:23;4.18;;;2.75;;
65162;SDS011;51751;55.714;37.436;2023-03-23T14:44:54;3.92;;;2.42;;
65162;SDS011;51751;55.714;37.436;2023-03-23T14:47:21;5.97;;;2.70;;
65162;SDS011;51751;55.714;37.436;2023-03-23T14:49:53;5.38;;;3.20;;
65162;SDS011;51751;55.714;37.436;2023-03-23T14:52:21;5.55;;;3.13;;
65162;SDS011;51751;55.714;37.436;2023-03-23T14:54:48;3.95;;;2.90;;
65162;SDS011;51751;55.714;37.436;2023-03-23T14:57:19;6.90;;;2.63;;
65162;SDS011;51751;55.714;37.436;2023-03-23T14:59:52;6.55;;;3.25;;
65162;SDS011;51751;55.714;37.436;2023-03-23T15:02:27;5.50;;;3.00;;
65162;SDS011;51751;55.714;37.436;2023-03-23T15:04:59;6.35;;;3.75;;
65162;SDS011;51751;55.714;37.436;2023-03-23T15:07:33;5.43;;;3.45;;
65162;SDS011;51751;55.714;37.436;2023-03-23T15:10:05;7.95;;;3.70;;
65162;SDS011;51751;55.714;37.436;2023-03-23T15:13:01;4.90;;;2.90;;
65162;SDS011;51751;55.714;37.436;2023-03-23T15:15:34;7.63;;;3.13;;
65162;SDS011;51751;55.714;37.436;2023-03-23T15:18:37;7.20;;;3.20;;
65162;SDS011;51751;55.714;37.436;2023-03-23T15:21:08;5.13;;;3.10;;
65162;SDS011;51751;55.714;37.436;2023-03-23T15:23:48;10.30;;;3.05;;
65162;SDS011;51751;55.714;37.436;2023-03-23T15:26:33;7.30;;;3.33;;
65162;SDS011;51751;55.714;37.436;2023-03-23T15:31:55;8.40;;;3.13;;
65162;SDS011;51751;55.714;37.436;2023-03-23T15:34:31;9.70;;;3.30;;
65162;SDS011;51751;55.714;37.436;2023-03-23T15:37:05;7.45;;;3.20;;
65162;SDS011;51751;55.714;37.436;2023-03-23T15:39:41;4.88;;;2.95;;
65162;SDS011;51751;55.714;37.436;2023-03-23T15:42:18;8.60;;;3.17;;
65162;SDS011;51751;55.714;37.436;2023-03-23T15:52:44;3.80;;;2.80;;
65162;SDS011;51751;55.714;37.436;2023-03-23T15:58:04;5.38;;;3.20;;
65162;SDS011;51751;55.714;37.436;2023-03-23T16:00:40;4.97;;;3.20;;
65162;SDS011;51751;55.714;37.436;2023-03-23T16:03:08;6.28;;;2.70;;
65162;SDS011;51751;55.714;37.436;2023-03-23T16:05:50;5.32;;;2.85;;
65162;SDS011;51751;55.714;37.436;2023-03-23T16:08:18;5.40;;;3.08;;
65162;SDS011;51751;55.714;37.436;2023-03-23T16:10:44;5.20;;;3.20;;
65162;SDS011;51751;55.714;37.436;2023-03-23T16:13:10;5.07;;;3.45;;
65162;SDS011;51751;55.714;37.436;2023-03-23T16:15:36;5.95;;;3.17;;
65162;SDS011;51751;55.714;37.436;2023-03-23T16:18:02;6.95;;;3.22;;
65162;SDS011;51751;55.714;37.436;2023-03-23T16:20:28;6.05;;;3.40;;
65162;SDS011;51751;55.714;37.436;2023-03-23T16:22:58;6.35;;;3.10;;
65162;SDS011;51751;55.714;37.436;2023-03-23T16:25:24;5.88;;;3.05;;
65162;SDS011;51751;55.714;37.436;2023-03-23T16:27:50;6.20;;;3.25;;
65162;SDS011;51751;55.714;37.436;2023-03-23T16:30:22;9.70;;;3.90;;
65162;SDS011;51751;55.714;37.436;2023-03-23T16:32:55;5.72;;;3.65;;
65162;SDS011;51751;55.714;37.436;2023-03-23T16:35:21;6.65;;;3.35;;
65162;SDS011;51751;55.714;37.436;2023-03-23T16:37:49;5.70;;;3.60;;
65162;SDS011;51751;55.714;37.436;2023-03-23T16:40:17;5.80;;;3.50;;
65162;SDS011;51751;55.714;37.436;2023-03-23T16:42:47;6.80;;;3.47;;
65162;SDS011;51751;55.714;37.436;2023-03-23T16:45:31;5.93;;;3.85;;
65162;SDS011;51751;55.714;37.436;2023-03-23T16:47:57;6.93;;;3.63;;
65162;SDS011;51751;55.714;37.436;2023-03-23T16:50:26;7.80;;;3.25;;
65162;SDS011;51751;55.714;37.436;2023-03-23T16:52:54;5.15;;;3.20;;
65162;SDS011;51751;55.714;37.436;2023-03-23T16:55:20;5.50;;;3.60;;
65162;SDS011;51751;55.714;37.436;2023-03-23T16:57:46;6.55;;;3.40;;
65162;SDS011;51751;55.714;37.436;2023-03-23T17:00:13;5.53;;;3.42;;
65162;SDS011;51751;55.714;37.436;2023-03-23T17:02:41;5.93;;;3.40;;
65162;SDS011;51751;55.714;37.436;2023-03-23T17:05:08;5.75;;;3.22;;
65162;SDS011;51751;55.714;37.436;2023-03-23T17:07:39;5.57;;;3.50;;
65162;SDS011;51751;55.714;37.436;2023-03-23T17:10:07;5.88;;;3.13;;
65162;SDS011;51751;55.714;37.436;2023-03-23T17:12:34;5.75;;;3.20;;
65162;SDS011;51751;55.714;37.436;2023-03-23T17:15:05;11.45;;;3.67;;
65162;SDS011;51751;55.714;37.436;2023-03-23T17:17:32;4.95;;;3.40;;
65162;SDS011;51751;55.714;37.436;2023-03-23T17:20:02;5.35;;;2.90;;
65162;SDS011;51751;55.714;37.436;2023-03-23T17:22:32;6.47;;;3.47;;
65162;SDS011;51751;55.714;37.436;2023-03-23T17:24:58;7.03;;;3.67;;
65162;SDS011;51751;55.714;37.436;2023-03-23T17:27:24;8.38;;;4.07;;
65162;SDS011;51751;55.714;37.436;2023-03-23T17:29:50;8.35;;;3.80;;
65162;SDS011;51751;55.714;37.436;2023-03-23T17:32:17;6.05;;;3.70;;
65162;SDS011;51751;55.714;37.436;2023-03-23T17:34:43;8.38;;;3.90;;
65162;SDS011;51751;55.714;37.436;2023-03-23T17:37:12;7.82;;;3.92;;